Time;durP1;ratioP1;P1;durP2;ratioP2;P2;SDS_P1;SDS_P2;PMS_P1;PMS_P2;Temp;Humidity;BMP_temperature;BMP_pressure;BME280_temperature;BME280_humidity;BME280_pressure;Samples;Min_cycle;Max_cycle;Signal;HPM_P1;HPM_P2
2020/12/09 00:00:12;;;;;;;4.23;3.00;;;21.20;45.50;;;;;;5027044;28;20223;-58
2020/12/09 00:02:39;;;;;;;3.57;2.60;;;21.00;45.60;;;;;;5019199;28;20231;-58
2020/12/09 00:05:08;;;;;;;3.13;2.67;;;20.90;45.70;;;;;;5026594;28;22380;-59
2020/12/09 00:07:35;;;;;;;5.00;2.73;;;20.80;46.00;;;;;;5019279;28;20238;-57
2020/12/09 00:10:05;;;;;;;4.00;2.50;;;20.80;46.10;;;;;;5026898;28;20256;-58
2020/12/09 00:12:33;;;;;;;3.40;2.73;;;20.70;46.40;;;;;;5022585;28;20230;-58
2020/12/09 00:15:00;;;;;;;2.90;2.60;;;20.60;46.50;;;;;;5025750;28;20239;-58
2020/12/09 00:17:28;;;;;;;2.70;2.50;;;20.60;46.60;;;;;;5028248;28;20227;-58
2020/12/09 00:19:55;;;;;;;3.23;2.90;;;20.50;46.70;;;;;;5019788;28;20809;-59
2020/12/09 00:22:23;;;;;;;3.53;3.00;;;20.40;46.90;;;;;;5024713;28;20227;-58
2020/12/09 00:24:51;;;;;;;3.20;2.90;;;20.30;47.00;;;;;;5022405;28;20573;-59
2020/12/09 00:27:18;;;;;;;3.60;2.80;;;20.30;47.00;;;;;;5011737;28;20388;-58
2020/12/09 00:29:44;;;;;;;3.07;2.47;;;20.20;47.10;;;;;;5018438;28;20235;-59
2020/12/09 00:32:11;;;;;;;4.67;3.00;;;20.20;47.10;;;;;;5027528;28;20233;-60
2020/12/09 00:34:37;;;;;;;4.27;3.10;;;20.10;47.30;;;;;;5021694;28;20245;-59
2020/12/09 00:37:03;;;;;;;3.83;3.30;;;20.00;47.40;;;;;;5027449;28;20234;-59
2020/12/09 00:39:29;;;;;;;2.60;2.40;;;20.00;47.50;;;;;;5018384;28;20243;-59
2020/12/09 00:41:55;;;;;;;3.40;3.10;;;19.90;47.50;;;;;;5026852;28;20674;-58
2020/12/09 00:44:21;;;;;;;3.50;3.20;;;19.90;47.60;;;;;;5021780;28;20235;-59
2020/12/09 00:46:48;;;;;;;3.37;3.07;;;19.90;47.70;;;;;;5026157;28;20646;-59
2020/12/09 00:49:14;;;;;;;3.27;2.97;;;19.90;47.70;;;;;;5019890;28;20564;-59
2020/12/09 00:51:40;;;;;;;3.30;3.00;;;19.90;47.80;;;;;;5026238;28;20617;-58
2020/12/09 00:54:06;;;;;;;3.60;3.20;;;19.80;47.80;;;;;;5025653;28;20230;-59
2020/12/09 00:56:32;;;;;;;4.57;2.83;;;19.70;47.90;;;;;;5020513;28;20261;-59
2020/12/09 00:58:59;;;;;;;3.43;2.80;;;19.70;48.10;;;;;;5027591;28;20289;-59
2020/12/09 01:01:25;;;;;;;3.30;3.00;;;19.70;48.10;;;;;;5016631;28;20234;-59
2020/12/09 01:03:51;;;;;;;3.13;2.80;;;19.60;48.10;;;;;;5028812;28;20234;-59
2020/12/09 01:06:19;;;;;;;4.53;3.13;;;19.60;48.20;;;;;;5019809;28;20713;-58
2020/12/09 01:08:45;;;;;;;3.73;3.20;;;19.60;48.40;;;;;;5026860;28;20231;-59
2020/12/09 01:11:11;;;;;;;3.23;2.90;;;19.50;48.40;;;;;;5018625;28;20579;-59
2020/12/09 01:13:43;;;;;;;3.30;3.00;;;19.50;48.40;;;;;;5027304;28;20233;-59
2020/12/09 01:16:17;;;;;;;3.07;2.77;;;19.50;48.50;;;;;;5020821;28;20690;-59
2020/12/09 01:18:43;;;;;;;3.67;3.20;;;19.40;48.60;;;;;;5026586;28;20226;-59
2020/12/09 01:21:09;;;;;;;3.27;2.93;;;19.40;48.70;;;;;;5019989;28;20230;-59
2020/12/09 01:23:35;;;;;;;3.17;2.87;;;19.40;48.80;;;;;;5027346;28;21856;-59
2020/12/09 01:26:07;;;;;;;3.57;2.93;;;19.30;48.80;;;;;;5018492;28;20222;-59
2020/12/09 01:28:33;;;;;;;3.60;3.10;;;19.30;48.90;;;;;;5026279;28;20238;-57
2020/12/09 01:31:00;;;;;;;3.20;2.90;;;19.20;48.90;;;;;;5019346;28;20219;-61
2020/12/09 01:33:26;;;;;;;3.67;3.37;;;19.20;49.00;;;;;;5026736;28;20235;-59
2020/12/09 01:35:52;;;;;;;3.30;3.00;;;19.20;49.10;;;;;;5026418;28;20227;-58
2020/12/09 01:38:18;;;;;;;3.60;3.00;;;19.20;49.20;;;;;;5022399;28;20210;-59
2020/12/09 01:40:44;;;;;;;4.97;3.10;;;19.10;49.20;;;;;;5028008;28;20223;-59
2020/12/09 01:43:11;;;;;;;3.27;2.93;;;19.10;49.20;;;;;;5020827;28;20750;-59
2020/12/09 01:45:37;;;;;;;3.53;3.23;;;19.10;49.30;;;;;;5026420;28;20236;-59
2020/12/09 01:48:07;;;;;;;3.17;2.87;;;19.00;49.30;;;;;;5021476;28;20214;-59
2020/12/09 01:50:34;;;;;;;3.37;3.00;;;19.00;49.40;;;;;;5025416;28;20218;-58
2020/12/09 01:53:01;;;;;;;3.57;3.17;;;19.00;49.50;;;;;;5018823;28;20721;-58
2020/12/09 01:55:27;;;;;;;2.63;2.40;;;19.00;49.50;;;;;;5026732;28;20272;-58
2020/12/09 01:57:53;;;;;;;3.70;2.80;;;18.90;49.50;;;;;;5021088;28;20223;-59
2020/12/09 02:00:19;;;;;;;3.43;3.10;;;18.90;49.60;;;;;;5027015;28;20603;-58
2020/12/09 02:02:46;;;;;;;3.33;3.03;;;18.90;49.70;;;;;;5019009;28;20242;-58
2020/12/09 02:05:12;;;;;;;3.50;3.20;;;18.90;49.80;;;;;;5027342;28;20625;-58
2020/12/09 02:07:38;;;;;;;3.33;3.03;;;18.80;49.80;;;;;;5020051;28;21430;-58
2020/12/09 02:10:07;;;;;;;3.70;3.40;;;18.80;49.80;;;;;;5027329;28;20238;-58
2020/12/09 02:12:37;;;;;;;3.40;3.10;;;18.80;49.80;;;;;;5020255;28;20700;-57
2020/12/09 02:15:05;;;;;;;4.07;3.20;;;18.80;50.00;;;;;;5027600;28;20230;-58
2020/12/09 02:17:31;;;;;;;3.47;3.17;;;18.80;50.00;;;;;;5025607;28;21092;-59
2020/12/09 02:19:58;;;;;;;3.70;3.40;;;18.70;50.00;;;;;;5020925;28;20237;-58
2020/12/09 02:22:24;;;;;;;3.87;3.43;;;18.70;50.10;;;;;;5025928;28;20235;-58
2020/12/09 02:24:50;;;;;;;3.87;3.47;;;18.70;50.10;;;;;;5015656;28;20239;-57
2020/12/09 02:27:17;;;;;;;4.77;3.30;;;18.60;50.10;;;;;;5026589;28;20233;-59
2020/12/09 02:29:43;;;;;;;3.50;3.10;;;18.60;50.10;;;;;;5018659;28;20231;-59
2020/12/09 02:32:09;;;;;;;3.63;3.33;;;18.60;50.10;;;;;;5026375;28;20245;-59
2020/12/09 02:34:35;;;;;;;3.27;2.97;;;18.60;50.90;;;;;;5020135;28;20234;-59
2020/12/09 02:37:07;;;;;;;4.03;3.40;;;18.60;50.20;;;;;;5025152;28;20231;-59
2020/12/09 02:39:38;;;;;;;3.53;3.23;;;18.60;50.30;;;;;;5018961;28;20832;-59
2020/12/09 02:42:05;;;;;;;3.50;3.20;;;18.50;50.30;;;;;;5024610;28;20281;-58
2020/12/09 02:44:31;;;;;;;3.37;3.07;;;18.50;50.40;;;;;;5021964;28;20230;-59
2020/12/09 02:46:58;;;;;;;4.73;3.50;;;18.50;50.40;;;;;;5024468;28;20600;-59
2020/12/09 02:49:25;;;;;;;3.70;3.30;;;18.50;50.40;;;;;;5020298;28;20234;-58
2020/12/09 02:51:51;;;;;;;3.50;3.20;;;18.50;50.50;;;;;;5026578;28;20238;-59
2020/12/09 02:54:18;;;;;;;3.90;3.30;;;18.40;50.50;;;;;;5019068;28;20231;-58
2020/12/09 02:56:44;;;;;;;3.57;3.00;;;18.40;50.50;;;;;;5027225;28;20250;-58
2020/12/09 02:59:11;;;;;;;3.87;3.57;;;18.40;50.60;;;;;;5027575;28;20653;-59
2020/12/09 03:01:37;;;;;;;4.17;3.77;;;18.40;50.60;;;;;;5024417;28;20860;-58
2020/12/09 03:04:03;;;;;;;4.03;3.53;;;18.30;50.60;;;;;;5029648;28;20261;-59
2020/12/09 03:06:30;;;;;;;3.70;3.33;;;18.30;50.70;;;;;;5023355;28;20580;-58
2020/12/09 03:08:56;;;;;;;3.70;3.27;;;18.30;50.70;;;;;;5030090;28;20798;-58
2020/12/09 03:11:23;;;;;;;4.07;3.67;;;18.30;50.80;;;;;;5023428;28;20254;-58
2020/12/09 03:13:49;;;;;;;5.00;3.43;;;18.30;50.80;;;;;;5031000;28;20226;-59
2020/12/09 03:16:16;;;;;;;3.43;3.13;;;18.30;50.80;;;;;;5023078;28;20297;-59
2020/12/09 03:18:42;;;;;;;4.00;3.70;;;18.20;50.80;;;;;;5027058;28;20230;-59
2020/12/09 03:21:08;;;;;;;3.63;3.33;;;18.20;50.90;;;;;;5024306;28;20280;-58
2020/12/09 03:23:35;;;;;;;3.90;3.50;;;18.20;50.90;;;;;;5030472;28;20944;-59
2020/12/09 03:26:02;;;;;;;3.77;3.47;;;18.20;50.90;;;;;;5023108;28;20691;-59
2020/12/09 03:28:28;;;;;;;4.07;3.67;;;18.10;51.30;;;;;;5028578;28;20223;-59
2020/12/09 03:30:55;;;;;;;3.50;3.20;;;18.20;51.00;;;;;;5023502;28;20230;-59
2020/12/09 03:33:21;;;;;;;3.53;3.23;;;18.10;51.10;;;;;;5025822;28;20227;-59
2020/12/09 03:35:47;;;;;;;3.27;2.97;;;18.10;51.00;;;;;;5029451;28;20250;-58
2020/12/09 03:38:14;;;;;;;3.80;3.40;;;18.10;51.10;;;;;;5021162;28;20310;-59
2020/12/09 03:40:40;;;;;;;4.20;3.80;;;18.10;51.10;;;;;;5026607;28;20226;-59
2020/12/09 03:43:07;;;;;;;3.97;3.57;;;18.00;51.10;;;;;;5022660;28;20249;-58
2020/12/09 03:45:33;;;;;;;4.77;4.27;;;18.00;51.20;;;;;;5027621;28;20897;-58
2020/12/09 03:47:59;;;;;;;4.30;3.90;;;18.00;51.20;;;;;;5021299;28;20223;-59
2020/12/09 03:50:25;;;;;;;4.43;4.03;;;18.00;51.10;;;;;;5029903;28;20241;-59
2020/12/09 03:52:52;;;;;;;3.87;3.33;;;18.00;51.20;;;;;;5021680;28;20277;-58
2020/12/09 03:55:18;;;;;;;4.20;3.53;;;18.00;51.20;;;;;;5028426;28;20261;-58
2020/12/09 03:57:44;;;;;;;4.00;3.60;;;18.00;51.30;;;;;;5022490;28;20917;-59
2020/12/09 04:00:10;;;;;;;4.73;3.87;;;17.90;51.30;;;;;;5028332;28;20223;-59
2020/12/09 04:02:37;;;;;;;4.30;3.90;;;17.90;51.30;;;;;;5022830;28;20226;-58
2020/12/09 04:05:04;;;;;;;4.57;4.17;;;17.90;51.40;;;;;;5029776;28;20230;-59
2020/12/09 04:07:30;;;;;;;4.43;3.77;;;17.90;51.40;;;;;;5023080;28;20246;-59
2020/12/09 04:09:56;;;;;;;4.33;3.93;;;17.90;51.40;;;;;;5027686;28;20872;-57
2020/12/09 04:12:23;;;;;;;4.00;3.60;;;17.90;51.40;;;;;;5026573;28;20703;-58
2020/12/09 04:14:51;;;;;;;3.93;3.53;;;17.80;51.40;;;;;;5025370;28;20229;-59
2020/12/09 04:17:17;;;;;;;4.30;3.90;;;17.80;51.40;;;;;;5028778;28;20230;-58
2020/12/09 04:19:44;;;;;;;4.63;3.63;;;17.90;51.40;;;;;;5021473;28;22871;-58
2020/12/09 04:22:10;;;;;;;4.37;3.97;;;17.90;51.50;;;;;;5023682;28;20250;-57
2020/12/09 04:24:37;;;;;;;4.30;3.90;;;17.80;51.40;;;;;;5018071;28;20649;-59
2020/12/09 04:27:03;;;;;;;4.13;3.73;;;17.80;51.50;;;;;;5028893;28;20233;-59
2020/12/09 04:29:29;;;;;;;4.57;4.17;;;17.80;51.50;;;;;;5022928;28;20243;-57
2020/12/09 04:31:55;;;;;;;5.33;4.67;;;17.70;51.50;;;;;;5028336;28;20222;-57
2020/12/09 04:34:22;;;;;;;4.67;4.27;;;17.70;51.60;;;;;;5020523;28;20768;-60
2020/12/09 04:36:49;;;;;;;4.67;4.13;;;17.70;51.60;;;;;;5027273;28;20230;-58
2020/12/09 04:39:17;;;;;;;4.90;4.40;;;17.70;51.50;;;;;;5020208;28;20219;-58
2020/12/09 04:41:45;;;;;;;4.73;4.23;;;17.70;51.60;;;;;;5026684;28;20226;-57
2020/12/09 04:44:12;;;;;;;4.57;4.00;;;17.70;51.60;;;;;;5020480;28;20235;-58
2020/12/09 04:46:49;;;;;;;4.50;4.10;;;17.70;51.60;;;;;;5029396;28;20585;-57
2020/12/09 04:49:23;;;;;;;5.13;4.63;;;17.70;51.60;;;;;;5020227;28;21797;-57
2020/12/09 04:52:00;;;;;;;4.90;4.50;;;17.70;51.60;;;;;;5028570;28;21094;-57
2020/12/09 04:54:38;;;;;;;5.23;4.73;;;17.60;51.60;;;;;;5018677;28;20466;-58
2020/12/09 04:57:11;;;;;;;4.80;4.27;;;17.60;51.60;;;;;;5025359;28;20273;-58
2020/12/09 04:59:42;;;;;;;5.27;4.77;;;17.60;51.60;;;;;;5019980;28;20361;-59
2020/12/09 05:02:11;;;;;;;5.63;5.07;;;17.60;51.60;;;;;;5028354;28;20663;-58
2020/12/09 05:04:38;;;;;;;5.53;5.03;;;17.60;51.60;;;;;;5023945;28;20584;-58
2020/12/09 05:07:10;;;;;;;6.20;5.60;;;17.60;51.60;;;;;;5027261;28;20235;-59
2020/12/09 05:09:43;;;;;;;6.10;5.50;;;17.60;51.60;;;;;;5026933;28;20852;-59
2020/12/09 05:12:15;;;;;;;6.00;5.40;;;17.50;51.60;;;;;;5023141;28;20269;-59
2020/12/09 05:14:47;;;;;;;6.20;5.60;;;17.50;51.60;;;;;;5027302;28;20277;-57
2020/12/09 05:17:19;;;;;;;6.63;5.93;;;17.50;51.70;;;;;;5021781;28;20230;-59
2020/12/09 05:19:47;;;;;;;8.13;5.97;;;17.50;51.70;;;;;;5026335;28;20246;-58
2020/12/09 05:22:16;;;;;;;6.60;5.70;;;17.50;51.70;;;;;;5021029;28;20785;-58
2020/12/09 05:24:44;;;;;;;6.00;5.40;;;17.50;51.70;;;;;;5023301;28;20215;-58
2020/12/09 05:27:12;;;;;;;8.53;5.97;;;17.70;52.20;;;;;;5023271;28;20237;-56
2020/12/09 05:29:50;;;;;;;8.17;5.40;;;18.30;51.70;;;;;;5023752;28;20238;-58
2020/12/09 05:32:17;;;;;;;7.20;4.90;;;18.90;50.80;;;;;;5022654;28;20623;-57
2020/12/09 05:34:44;;;;;;;5.40;4.90;;;19.20;50.40;;;;;;5024213;28;21191;-57
2020/12/09 05:37:12;;;;;;;5.47;4.93;;;19.50;49.70;;;;;;5020137;28;20745;-57
2020/12/09 05:39:52;;;;;;;6.40;5.20;;;19.80;49.30;;;;;;5026430;28;20222;-56
2020/12/09 05:42:21;;;;;;;5.03;4.43;;;20.00;48.60;;;;;;5020525;28;20211;-58
2020/12/09 05:44:48;;;;;;;5.37;4.87;;;20.30;48.30;;;;;;5008450;28;20230;-57
2020/12/09 05:47:17;;;;;;;5.00;4.50;;;20.50;47.90;;;;;;5019106;28;20226;-58
2020/12/09 05:49:44;;;;;;;5.50;5.00;;;20.70;47.60;;;;;;5028250;28;20222;-59
2020/12/09 05:52:15;;;;;;;5.27;4.73;;;20.80;47.30;;;;;;5014028;28;20703;-56
2020/12/09 05:54:45;;;;;;;5.27;4.77;;;20.90;47.10;;;;;;5006018;28;20220;-58
2020/12/09 05:57:14;;;;;;;5.17;4.67;;;21.10;47.00;;;;;;5014731;28;20231;-57
2020/12/09 05:59:43;;;;;;;5.30;4.80;;;21.40;46.60;;;;;;5024631;28;20296;-56
2020/12/09 06:02:30;;;;;;;5.93;5.33;;;21.50;46.30;;;;;;5023974;28;20233;-60
2020/12/09 06:05:05;;;;;;;5.57;5.07;;;21.60;45.70;;;;;;5025706;28;20230;-59
2020/12/09 06:07:32;;;;;;;6.00;5.30;;;21.80;45.70;;;;;;5034769;28;20626;-56
2020/12/09 06:10:18;;;;;;;7.93;4.87;;;21.90;45.40;;;;;;5007195;28;20235;-58
2020/12/09 06:12:50;;;;;;;5.83;5.33;;;22.00;45.20;;;;;;4997948;28;20239;-56
2020/12/09 06:15:18;;;;;;;5.73;5.13;;;22.10;45.10;;;;;;5009925;28;20218;-58
2020/12/09 06:17:44;;;;;;;5.77;5.20;;;22.20;44.90;;;;;;4998643;28;20226;-59
2020/12/09 06:20:11;;;;;;;6.13;5.43;;;22.40;44.60;;;;;;5003576;28;20232;-58
2020/12/09 06:22:38;;;;;;;6.10;5.50;;;22.50;44.60;;;;;;5006333;28;20231;-58
2020/12/09 06:25:08;;;;;;;8.57;7.80;;;22.60;44.30;;;;;;5018719;28;20243;-58
2020/12/09 06:27:36;;;;;;;9.97;7.67;;;22.00;41.60;;;;;;5027063;28;20242;-59
2020/12/09 06:30:10;;;;;;;8.73;7.83;;;21.30;43.30;;;;;;5023819;28;20227;-59
2020/12/09 06:32:48;;;;;;;7.80;7.07;;;20.70;44.60;;;;;;5024042;28;20231;-58
2020/12/09 06:35:18;;;;;;;11.07;7.17;;;20.30;45.40;;;;;;5014578;28;20454;-59
2020/12/09 06:38:09;;;;;;;7.83;7.10;;;20.10;45.90;;;;;;5017458;28;20583;-58
2020/12/09 06:40:40;;;;;;;8.93;8.03;;;20.00;46.30;;;;;;5002958;28;20757;-57
2020/12/09 06:43:11;;;;;;;8.60;7.67;;;19.80;46.40;;;;;;5020579;28;20223;-58
2020/12/09 06:45:55;;;;;;;8.07;7.23;;;19.70;46.60;;;;;;5016248;28;20235;-58
2020/12/09 06:48:22;;;;;;;8.60;7.70;;;19.60;46.80;;;;;;5011186;28;20270;-58
2020/12/09 06:50:48;;;;;;;8.83;7.93;;;19.50;47.00;;;;;;5007464;28;20232;-60
2020/12/09 06:53:19;;;;;;;8.47;7.57;;;19.40;47.20;;;;;;5014111;28;20261;-59
2020/12/09 06:55:47;;;;;;;9.80;7.83;;;19.40;47.60;;;;;;5010436;28;20633;-59
2020/12/09 06:58:30;;;;;;;8.97;8.07;;;19.30;47.90;;;;;;5014682;28;20227;-57
2020/12/09 07:01:00;;;;;;;10.37;8.47;;;19.20;48.20;;;;;;5017062;28;20927;-59
2020/12/09 07:03:28;;;;;;;10.53;8.67;;;19.20;48.80;;;;;;5029376;28;20695;-58
2020/12/09 07:05:56;;;;;;;9.20;8.30;;;19.20;49.00;;;;;;5026458;28;20219;-58
2020/12/09 07:08:22;;;;;;;9.17;8.23;;;19.10;48.80;;;;;;5024664;28;20226;-57
2020/12/09 07:10:49;;;;;;;11.80;8.57;;;19.00;48.80;;;;;;5026171;28;20230;-58
2020/12/09 07:13:21;;;;;;;16.00;8.83;;;19.10;49.40;;;;;;5012865;28;20624;-61
2020/12/09 07:15:53;;;;;;;12.00;8.37;;;19.00;50.20;;;;;;4993420;28;20225;-61
2020/12/09 07:18:19;;;;;;;9.67;7.93;;;19.40;49.50;;;;;;5013206;28;20710;-59
2020/12/09 07:20:51;;;;;;;11.40;8.30;;;19.80;48.40;;;;;;5011579;28;20235;-61
2020/12/09 07:23:18;;;;;;;10.23;7.77;;;19.90;48.00;;;;;;5031901;28;21139;-54
2020/12/09 07:25:44;;;;;;;9.17;7.87;;;20.10;47.70;;;;;;5022374;28;20233;-58
2020/12/09 07:28:11;;;;;;;8.40;7.50;;;20.30;47.10;;;;;;5024378;28;20263;-58
2020/12/09 07:30:38;;;;;;;9.67;7.10;;;20.50;46.90;;;;;;5026563;28;20277;-55
2020/12/09 07:33:04;;;;;;;8.83;7.00;;;20.70;46.60;;;;;;5018710;28;20281;-58
2020/12/09 07:35:30;;;;;;;9.63;8.23;;;20.80;46.30;;;;;;5026782;28;20229;-55
2020/12/09 07:37:59;;;;;;;9.13;7.20;;;20.80;46.50;;;;;;5014877;28;20288;-58
2020/12/09 07:40:31;;;;;;;9.07;7.83;;;21.00;46.00;;;;;;5024685;28;20814;-57
2020/12/09 07:43:09;;;;;;;9.67;7.63;;;20.80;46.10;;;;;;5013136;28;20245;-59
2020/12/09 07:45:38;;;;;;;12.40;8.00;;;20.90;45.90;;;;;;5026407;28;20230;-57
2020/12/09 07:48:14;;;;;;;9.10;7.67;;;21.00;45.90;;;;;;5012776;28;20218;-55
2020/12/09 07:50:47;;;;;;;11.87;8.40;;;21.10;45.70;;;;;;5023212;28;20775;-57
2020/12/09 07:53:14;;;;;;;8.90;7.97;;;21.10;45.30;;;;;;5014338;28;20230;-57
2020/12/09 07:55:40;;;;;;;10.87;8.77;;;21.10;45.60;;;;;;5011592;28;20236;-57
2020/12/09 07:58:08;;;;;;;11.73;8.23;;;21.10;45.30;;;;;;4998730;28;20724;-57
2020/12/09 08:00:41;;;;;;;7.83;7.03;;;21.20;45.40;;;;;;4998992;28;20215;-57
2020/12/09 08:03:20;;;;;;;9.80;7.20;;;21.30;45.30;;;;;;5008499;28;20234;-57
2020/12/09 08:05:48;;;;;;;11.07;7.93;;;21.40;45.10;;;;;;5006398;28;20270;-57
2020/12/09 08:08:15;;;;;;;9.60;8.20;;;21.40;44.80;;;;;;4999684;28;20247;-56
2020/12/09 08:10:43;;;;;;;9.13;7.87;;;21.50;45.20;;;;;;5010226;28;20239;-56
2020/12/09 08:13:23;;;;;;;9.13;7.87;;;21.60;45.10;;;;;;4996432;28;20239;-57
2020/12/09 08:16:08;;;;;;;8.43;7.43;;;21.60;44.70;;;;;;5005937;28;20604;-55
2020/12/09 08:18:34;;;;;;;9.20;7.83;;;21.60;44.40;;;;;;4994622;28;20927;-56
2020/12/09 08:21:01;;;;;;;9.63;8.63;;;21.70;44.30;;;;;;5003065;28;20235;-56
2020/12/09 08:23:46;;;;;;;11.43;8.27;;;21.70;44.10;;;;;;4997347;28;20719;-56
2020/12/09 08:26:29;;;;;;;8.93;8.03;;;21.80;44.00;;;;;;5004723;28;20581;-56
2020/12/09 08:28:57;;;;;;;10.17;8.47;;;21.80;43.70;;;;;;5012536;28;20628;-56
2020/12/09 08:31:23;;;;;;;30.83;12.20;;;21.80;43.60;;;;;;5010405;28;20219;-55
2020/12/09 08:33:53;;;;;;;40.07;12.23;;;21.90;44.40;;;;;;5012572;28;20220;-56
2020/12/09 08:36:20;;;;;;;30.47;12.87;;;22.00;44.60;;;;;;5023892;28;20230;-57
2020/12/09 08:38:50;;;;;;;23.57;11.27;;;22.00;44.60;;;;;;5016534;28;20230;-57
2020/12/09 08:41:28;;;;;;;32.00;11.83;;;22.10;44.80;;;;;;5010159;28;20725;-55
2020/12/09 08:43:57;;;;;;;22.53;10.93;;;22.10;44.40;;;;;;5010253;28;20230;-56
2020/12/09 08:46:25;;;;;;;19.67;10.33;;;22.20;44.30;;;;;;5006323;28;20588;-57
2020/12/09 08:48:52;;;;;;;27.07;10.93;;;22.20;44.20;;;;;;5024589;28;20731;-57
2020/12/09 08:51:28;;;;;;;15.07;9.93;;;22.30;44.10;;;;;;5014685;28;20219;-55
2020/12/09 08:53:55;;;;;;;22.43;10.43;;;22.30;43.90;;;;;;5001076;28;20230;-58
2020/12/09 08:56:28;;;;;;;18.97;10.00;;;22.40;44.00;;;;;;5004127;28;20289;-57
2020/12/09 08:58:55;;;;;;;16.20;9.77;;;22.50;43.80;;;;;;4998629;28;20227;-55
2020/12/09 09:01:22;;;;;;;14.90;9.67;;;22.50;43.70;;;;;;4993874;28;20231;-55
2020/12/09 09:03:54;;;;;;;12.63;9.20;;;22.50;43.80;;;;;;5001446;28;20560;-57
2020/12/09 09:06:21;;;;;;;11.73;8.67;;;22.60;43.60;;;;;;4998593;28;20242;-57
2020/12/09 09:08:47;;;;;;;12.73;8.43;;;22.60;43.60;;;;;;5004512;28;20227;-55
2020/12/09 09:11:23;;;;;;;11.07;8.70;;;22.70;43.40;;;;;;4997172;28;20220;-56
2020/12/09 09:13:50;;;;;;;11.00;8.00;;;22.70;43.30;;;;;;5004861;28;20223;-55
2020/12/09 09:16:16;;;;;;;11.23;7.97;;;22.70;43.00;;;;;;4996599;28;20219;-56
2020/12/09 09:18:42;;;;;;;9.43;7.93;;;22.80;43.10;;;;;;5003591;28;20363;-56
2020/12/09 09:21:09;;;;;;;11.93;9.60;;;22.60;42.60;;;;;;4996260;28;20281;-55
2020/12/09 09:23:35;;;;;;;10.83;8.90;;;22.10;43.60;;;;;;5005633;28;20251;-57
2020/12/09 09:26:14;;;;;;;14.10;10.17;;;21.60;44.40;;;;;;4994460;28;20254;-57
2020/12/09 09:28:41;;;;;;;11.80;9.53;;;21.40;44.60;;;;;;5005178;28;20979;-57
2020/12/09 09:31:08;;;;;;;11.40;9.33;;;21.30;45.00;;;;;;4995801;28;20230;-57
2020/12/09 09:33:34;;;;;;;12.57;8.93;;;21.10;45.30;;;;;;5009950;28;20739;-57
2020/12/09 09:36:02;;;;;;;11.77;9.83;;;21.00;45.20;;;;;;4992999;28;20238;-57
2020/12/09 09:38:28;;;;;;;11.13;9.80;;;20.90;45.30;;;;;;5002697;28;20227;-57
2020/12/09 09:40:54;;;;;;;11.03;9.67;;;20.90;45.50;;;;;;5007786;28;20228;-56
2020/12/09 09:43:21;;;;;;;11.40;8.93;;;20.80;45.70;;;;;;5004931;28;20242;-57
2020/12/09 09:45:49;;;;;;;10.83;9.17;;;20.70;45.70;;;;;;5004874;28;20219;-58
2020/12/09 09:48:15;;;;;;;11.90;10.10;;;20.60;45.70;;;;;;5005984;28;20223;-57
2020/12/09 09:50:41;;;;;;;12.83;10.77;;;20.60;46.00;;;;;;5009264;28;20262;-56
2020/12/09 09:53:07;;;;;;;12.57;10.57;;;20.50;46.00;;;;;;5002145;28;20277;-57
2020/12/09 09:55:34;;;;;;;14.00;10.57;;;20.40;46.00;;;;;;5005211;28;20235;-56
2020/12/09 09:58:00;;;;;;;13.63;9.37;;;20.30;46.10;;;;;;4994966;28;20234;-62
2020/12/09 10:00:26;;;;;;;10.53;9.40;;;20.30;47.50;;;;;;5003813;28;20251;-63
2020/12/09 10:02:52;;;;;;;15.57;9.57;;;20.50;47.20;;;;;;4998917;28;20230;-62
2020/12/09 10:05:18;;;;;;;17.40;9.30;;;20.60;47.80;;;;;;5023618;28;20831;-63
2020/12/09 10:07:45;;;;;;;17.07;9.57;;;20.70;47.60;;;;;;5016476;28;20230;-62
2020/12/09 10:10:11;;;;;;;9.63;8.63;;;20.80;47.60;;;;;;5026173;28;20712;-63
2020/12/09 10:12:37;;;;;;;9.70;8.70;;;20.80;47.70;;;;;;5019348;28;20258;-62
2020/12/09 10:15:04;;;;;;;10.13;8.90;;;20.80;47.30;;;;;;5025664;28;20246;-62
2020/12/09 10:17:30;;;;;;;12.13;10.60;;;20.90;47.40;;;;;;5027679;28;20258;-63
2020/12/09 10:19:57;;;;;;;11.67;10.30;;;20.90;47.60;;;;;;5018722;28;20222;-62
2020/12/09 10:22:26;;;;;;;11.20;10.07;;;20.90;47.30;;;;;;5025460;28;20849;-63
2020/12/09 10:24:53;;;;;;;12.87;11.57;;;20.90;47.30;;;;;;5018520;28;20237;-63
2020/12/09 10:27:20;;;;;;;13.57;12.03;;;20.90;47.00;;;;;;5024463;28;20226;-62
2020/12/09 10:29:46;;;;;;;12.87;11.30;;;21.00;47.30;;;;;;5018660;28;20574;-62
2020/12/09 10:32:13;;;;;;;12.37;10.87;;;21.00;47.20;;;;;;5030012;28;20237;-64
2020/12/09 10:34:40;;;;;;;13.70;11.13;;;21.00;47.10;;;;;;5017143;28;20261;-62
2020/12/09 10:37:08;;;;;;;12.20;11.00;;;21.00;46.70;;;;;;5008953;28;20231;-60
2020/12/09 10:39:34;;;;;;;12.67;11.33;;;21.00;46.90;;;;;;4999923;28;20238;-62
2020/12/09 10:42:02;;;;;;;12.53;11.33;;;21.00;46.20;;;;;;5029557;28;20636;-61
2020/12/09 10:44:28;;;;;;;12.67;10.97;;;21.00;46.40;;;;;;5019471;28;20229;-63
2020/12/09 10:46:54;;;;;;;11.37;10.23;;;21.00;46.40;;;;;;5027068;28;20226;-63
2020/12/09 10:49:20;;;;;;;11.07;9.93;;;21.00;46.40;;;;;;5018383;28;20633;-64
2020/12/09 10:51:49;;;;;;;11.17;10.07;;;21.00;46.20;;;;;;5026079;28;20230;-63
2020/12/09 10:54:16;;;;;;;11.93;10.70;;;21.00;46.10;;;;;;5021190;28;20871;-55
2020/12/09 10:56:42;;;;;;;20.60;12.17;;;20.80;45.30;;;;;;5019788;28;20220;-56
2020/12/09 10:59:15;;;;;;;13.67;10.60;;;20.70;45.90;;;;;;5010890;28;20222;-56
2020/12/09 11:01:44;;;;;;;11.67;10.47;;;20.60;45.90;;;;;;5019240;28;20223;-56
2020/12/09 11:04:21;;;;;;;13.03;10.50;;;20.60;45.90;;;;;;5027665;28;21802;-56
2020/12/09 11:06:47;;;;;;;21.53;13.13;;;20.50;46.10;;;;;;5018483;28;20696;-57
2020/12/09 11:09:13;;;;;;;16.40;12.07;;;20.60;47.30;;;;;;5026539;28;20225;-55
2020/12/09 11:11:45;;;;;;;16.17;11.33;;;20.60;46.80;;;;;;5018818;28;20227;-55
2020/12/09 11:14:15;;;;;;;14.87;11.53;;;20.50;47.10;;;;;;5028349;28;20238;-56
2020/12/09 11:16:42;;;;;;;14.50;11.87;;;20.50;47.10;;;;;;5017321;28;20235;-56
2020/12/09 11:19:09;;;;;;;14.97;11.13;;;20.50;47.30;;;;;;5005839;28;20652;-54
2020/12/09 11:21:38;;;;;;;13.57;11.17;;;20.50;46.90;;;;;;5018718;28;20639;-56
2020/12/09 11:24:05;;;;;;;13.70;10.90;;;20.50;47.10;;;;;;5022999;28;20288;-57
2020/12/09 11:26:31;;;;;;;11.73;10.07;;;20.50;46.40;;;;;;5018536;28;20825;-57
2020/12/09 11:28:58;;;;;;;12.67;10.10;;;20.40;46.20;;;;;;5024012;28;21315;-57
2020/12/09 11:31:25;;;;;;;11.60;10.43;;;20.30;46.20;;;;;;5011256;28;20223;-57
2020/12/09 11:33:52;;;;;;;12.03;10.83;;;20.20;46.20;;;;;;5025992;28;20243;-57
2020/12/09 11:36:26;;;;;;;12.40;10.83;;;20.20;46.10;;;;;;5017821;28;20230;-56
2020/12/09 11:38:53;;;;;;;11.17;10.00;;;20.10;46.00;;;;;;5026245;28;20757;-56
2020/12/09 11:41:27;;;;;;;12.27;10.33;;;20.10;46.10;;;;;;5016035;28;20238;-57
2020/12/09 11:43:57;;;;;;;10.80;9.70;;;20.10;46.00;;;;;;5025267;28;20239;-56
2020/12/09 11:46:24;;;;;;;10.83;9.17;;;20.00;46.10;;;;;;5018740;28;20230;-57
2020/12/09 11:48:51;;;;;;;10.43;9.40;;;20.00;46.10;;;;;;5025887;28;20229;-56
2020/12/09 11:51:17;;;;;;;10.17;9.17;;;20.00;45.90;;;;;;5026653;28;20264;-56
2020/12/09 11:53:45;;;;;;;9.83;8.53;;;20.00;46.00;;;;;;5017443;28;20853;-57
2020/12/09 11:56:12;;;;;;;9.90;8.90;;;19.90;45.90;;;;;;5025154;28;20231;-57
2020/12/09 11:58:39;;;;;;;10.20;9.20;;;19.90;46.00;;;;;;5018023;28;20253;-57
2020/12/09 12:01:08;;;;;;;9.07;8.17;;;19.90;46.00;;;;;;5008807;28;20228;-56
2020/12/09 12:03:34;;;;;;;9.67;8.77;;;19.80;45.80;;;;;;5020784;28;20813;-56
2020/12/09 12:06:01;;;;;;;9.20;7.83;;;19.80;45.90;;;;;;5016512;28;20661;-57
2020/12/09 12:08:27;;;;;;;9.00;8.20;;;19.80;46.00;;;;;;5013614;28;20238;-56
2020/12/09 12:10:54;;;;;;;8.47;7.57;;;19.80;45.90;;;;;;5024030;28;20223;-60
2020/12/09 12:13:20;;;;;;;8.23;7.43;;;19.80;46.30;;;;;;5016781;28;20270;-56
2020/12/09 12:15:47;;;;;;;44.87;14.33;;;19.80;46.50;;;;;;5026644;28;20806;-56
2020/12/09 12:18:13;;;;;;;84.67;19.90;;;19.80;46.60;;;;;;5012699;28;20235;-56
2020/12/09 12:20:39;;;;;;;87.57;20.33;;;19.70;46.50;;;;;;5020973;28;20241;-56
2020/12/09 12:23:05;;;;;;;57.93;16.50;;;19.70;46.90;;;;;;5017375;28;20222;-55
2020/12/09 12:25:32;;;;;;;42.10;15.73;;;19.60;47.00;;;;;;5015746;28;20224;-57
2020/12/09 12:27:58;;;;;;;45.23;14.17;;;19.60;47.20;;;;;;5002901;28;20891;-56
2020/12/09 12:30:24;;;;;;;32.23;12.97;;;19.60;47.40;;;;;;5002011;28;20775;-56
2020/12/09 12:32:51;;;;;;;34.47;12.73;;;19.60;47.40;;;;;;5015482;28;20237;-55
2020/12/09 12:35:17;;;;;;;25.90;12.03;;;19.50;47.50;;;;;;5012446;28;20554;-55
2020/12/09 12:37:43;;;;;;;36.23;12.97;;;19.50;47.60;;;;;;5003077;28;20861;-56
2020/12/09 12:40:11;;;;;;;22.50;11.47;;;19.40;47.60;;;;;;4997320;28;20581;-55
2020/12/09 12:42:37;;;;;;;17.93;10.10;;;19.50;47.60;;;;;;5018854;28;20289;-57
2020/12/09 12:45:04;;;;;;;22.03;9.23;;;19.40;47.80;;;;;;4997083;28;20222;-56